sensor_id;sensor_type;location;lat;lon;timestamp;pressure;altitude;pressure_sealevel;temperature;humidity
10992;BME280;5549;47.028;15.514;2023-05-11T00:02:35;96367.53;;;14.54;65.55
10992;BME280;5549;47.028;15.514;2023-05-11T00:05:04;96364.84;;;14.46;65.26
10992;BME280;5549;47.028;15.514;2023-05-11T00:07:34;96368.47;;;14.44;65.34
10992;BME280;5549;47.028;15.514;2023-05-11T00:10:04;96363.03;;;14.46;65.28
10992;BME280;5549;47.028;15.514;2023-05-11T00:12:34;96362.78;;;14.39;64.55
10992;BME280;5549;47.028;15.514;2023-05-11T00:15:05;96357.47;;;14.31;65.06
10992;BME280;5549;47.028;15.514;2023-05-11T00:17:37;96355.66;;;14.32;65.42
10992;BME280;5549;47.028;15.514;2023-05-11T00:20:06;96358.97;;;14.34;65.53
10992;BME280;5549;47.028;15.514;2023-05-11T00:22:34;96353.06;;;14.40;65.73
10992;BME280;5549;47.028;15.514;2023-05-11T00:25:05;96353.75;;;14.42;65.94
10992;BME280;5549;47.028;15.514;2023-05-11T00:27:35;96347.25;;;14.36;66.02
10992;BME280;5549;47.028;15.514;2023-05-11T00:30:07;96348.94;;;14.11;66.04
10992;BME280;5549;47.028;15.514;2023-05-11T00:32:39;96345.56;;;14.01;66.27
10992;BME280;5549;47.028;15.514;2023-05-11T00:35:09;96350.19;;;13.81;67.00
10992;BME280;5549;47.028;15.514;2023-05-11T00:37:39;96344.31;;;13.88;67.28
10992;BME280;5549;47.028;15.514;2023-05-11T00:40:08;96349.59;;;13.88;67.19
10992;BME280;5549;47.028;15.514;2023-05-11T00:42:38;96346.97;;;13.88;67.02
10992;BME280;5549;47.028;15.514;2023-05-11T00:45:07;96348.09;;;13.67;66.66
10992;BME280;5549;47.028;15.514;2023-05-11T00:47:34;96341.84;;;13.68;65.95
10992;BME280;5549;47.028;15.514;2023-05-11T00:50:08;96338.16;;;13.61;65.74
10992;BME280;5549;47.028;15.514;2023-05-11T00:52:37;96340.81;;;13.61;65.80
10992;BME280;5549;47.028;15.514;2023-05-11T00:55:08;96335.69;;;13.60;66.07
10992;BME280;5549;47.028;15.514;2023-05-11T00:57:39;96339.00;;;13.44;66.16
10992;BME280;5549;47.028;15.514;2023-05-11T01:00:10;96335.03;;;13.40;65.54
10992;BME280;5549;47.028;15.514;2023-05-11T01:02:40;96342.72;;;13.33;65.45
10992;BME280;5549;47.028;15.514;2023-05-11T01:05:09;96340.75;;;13.18;65.86
10992;BME280;5549;47.028;15.514;2023-05-11T01:07:45;96337.03;;;13.10;66.19
10992;BME280;5549;47.028;15.514;2023-05-11T01:10:27;96339.63;;;13.20;66.50
10992;BME280;5549;47.028;15.514;2023-05-11T01:13:12;96335.56;;;13.26;65.63
10992;BME280;5549;47.028;15.514;2023-05-11T01:15:47;96336.84;;;13.22;65.93
10992;BME280;5549;47.028;15.514;2023-05-11T01:18:23;96331.94;;;13.27;65.47
10992;BME280;5549;47.028;15.514;2023-05-11T01:20:57;96335.38;;;13.09;66.02
10992;BME280;5549;47.028;15.514;2023-05-11T01:23:45;96337.41;;;13.15;65.73
10992;BME280;5549;47.028;15.514;2023-05-11T01:27:00;96336.34;;;13.08;66.64
10992;BME280;5549;47.028;15.514;2023-05-11T01:30:23;96327.53;;;13.00;66.36
10992;BME280;5549;47.028;15.514;2023-05-11T01:32:58;96336.03;;;13.11;66.55
10992;BME280;5549;47.028;15.514;2023-05-11T01:35:32;96338.19;;;13.26;65.95
10992;BME280;5549;47.028;15.514;2023-05-11T01:38:03;96338.69;;;13.11;66.02
10992;BME280;5549;47.028;15.514;2023-05-11T01:40:33;96336.03;;;13.11;66.42
10992;BME280;5549;47.028;15.514;2023-05-11T01:43:06;96336.34;;;13.08;66.43
10992;BME280;5549;47.028;15.514;2023-05-11T01:45:39;96339.09;;;13.16;66.27
10992;BME280;5549;47.028;15.514;2023-05-11T01:48:18;96332.63;;;13.29;65.82
10992;BME280;5549;47.028;15.514;2023-05-11T01:50:59;96332.00;;;13.17;66.16
10992;BME280;5549;47.028;15.514;2023-05-11T01:53:33;96331.06;;;12.91;67.73
10992;BME280;5549;47.028;15.514;2023-05-11T01:56:05;96331.53;;;13.04;66.83
10992;BME280;5549;47.028;15.514;2023-05-11T01:58:37;96331.97;;;12.99;66.85
10992;BME280;5549;47.028;15.514;2023-05-11T02:01:08;96334.66;;;13.17;66.50
10992;BME280;5549;47.028;15.514;2023-05-11T02:03:39;96332.28;;;13.14;66.31
10992;BME280;5549;47.028;15.514;2023-05-11T02:06:11;96331.06;;;13.08;67.00
10992;BME280;5549;47.028;15.514;2023-05-11T02:08:41;96325.28;;;13.05;66.70
10992;BME280;5549;47.028;15.514;2023-05-11T02:11:10;96326.41;;;13.02;67.10
10992;BME280;5549;47.028;15.514;2023-05-11T02:13:43;96330.00;;;13.01;67.21
10992;BME280;5549;47.028;15.514;2023-05-11T02:16:14;96325.63;;;12.92;67.41
10992;BME280;5549;47.028;15.514;2023-05-11T02:18:45;96328.72;;;12.88;67.88
10992;BME280;5549;47.028;15.514;2023-05-11T02:21:18;96332.09;;;12.80;68.47
10992;BME280;5549;47.028;15.514;2023-05-11T02:23:47;96326.47;;;12.93;67.44
10992;BME280;5549;47.028;15.514;2023-05-11T02:26:16;96328.56;;;12.89;67.67
10992;BME280;5549;47.028;15.514;2023-05-11T02:28:44;96331.81;;;13.01;67.12
10992;BME280;5549;47.028;15.514;2023-05-11T02:31:18;96328.00;;;12.68;68.35
10992;BME280;5549;47.028;15.514;2023-05-11T02:33:48;96320.44;;;12.82;67.78
10992;BME280;5549;47.028;15.514;2023-05-11T02:36:20;96323.16;;;12.91;67.49
10992;BME280;5549;47.028;15.514;2023-05-11T02:38:52;96321.63;;;12.88;67.58
10992;BME280;5549;47.028;15.514;2023-05-11T02:41:27;96316.16;;;12.99;67.45
10992;BME280;5549;47.028;15.514;2023-05-11T02:44:04;96318.09;;;12.97;67.64
10992;BME280;5549;47.028;15.514;2023-05-11T02:46:38;96320.91;;;12.96;67.31
10992;BME280;5549;47.028;15.514;2023-05-11T02:49:08;96307.88;;;12.94;67.38
10992;BME280;5549;47.028;15.514;2023-05-11T02:51:38;96315.47;;;12.97;67.56
10992;BME280;5549;47.028;15.514;2023-05-11T02:54:09;96306.19;;;12.75;68.21
10992;BME280;5549;47.028;15.514;2023-05-11T02:56:38;96313.13;;;12.94;67.68
10992;BME280;5549;47.028;15.514;2023-05-11T02:59:08;96312.50;;;12.65;68.52
10992;BME280;5549;47.028;15.514;2023-05-11T03:01:38;96318.53;;;12.75;68.28
10992;BME280;5549;47.028;15.514;2023-05-11T03:04:08;96312.06;;;12.87;68.14
10992;BME280;5549;47.028;15.514;2023-05-11T03:06:35;96311.47;;;12.93;67.82
10992;BME280;5549;47.028;15.514;2023-05-11T03:09:03;96311.59;;;12.74;68.61
10992;BME280;5549;47.028;15.514;2023-05-11T03:11:36;96307.56;;;12.79;68.32
10992;BME280;5549;47.028;15.514;2023-05-11T03:14:08;96309.84;;;12.65;68.88
10992;BME280;5549;47.028;15.514;2023-05-11T03:16:39;96311.22;;;12.69;68.97
10992;BME280;5549;47.028;15.514;2023-05-11T03:19:09;96314.84;;;12.40;70.07
10992;BME280;5549;47.028;15.514;2023-05-11T03:21:38;96313.09;;;12.59;69.21
10992;BME280;5549;47.028;15.514;2023-05-11T03:24:06;96313.09;;;12.59;69.43
10992;BME280;5549;47.028;15.514;2023-05-11T03:26:35;96311.03;;;12.52;69.12
10992;BME280;5549;47.028;15.514;2023-05-11T03:29:03;96310.84;;;12.64;69.41
10992;BME280;5549;47.028;15.514;2023-05-11T03:31:33;96315.34;;;12.53;69.59
10992;BME280;5549;47.028;15.514;2023-05-11T03:34:02;96316.69;;;12.58;68.83
10992;BME280;5549;47.028;15.514;2023-05-11T03:36:32;96309.22;;;12.53;69.67
10992;BME280;5549;47.028;15.514;2023-05-11T03:39:01;96310.25;;;12.70;68.76
10992;BME280;5549;47.028;15.514;2023-05-11T03:41:30;96310.31;;;12.60;68.68
10992;BME280;5549;47.028;15.514;2023-05-11T03:44:04;96313.25;;;12.75;68.07
10992;BME280;5549;47.028;15.514;2023-05-11T03:46:33;96311.97;;;12.61;68.54
10992;BME280;5549;47.028;15.514;2023-05-11T03:49:04;96304.03;;;12.43;69.48
10992;BME280;5549;47.028;15.514;2023-05-11T03:51:34;96296.50;;;12.48;69.00
10992;BME280;5549;47.028;15.514;2023-05-11T03:54:02;96305.69;;;12.44;69.30
10992;BME280;5549;47.028;15.514;2023-05-11T03:56:35;96299.63;;;12.62;68.32
10992;BME280;5549;47.028;15.514;2023-05-11T03:59:03;96299.63;;;12.34;69.12
10992;BME280;5549;47.028;15.514;2023-05-11T04:01:31;96303.53;;;12.58;68.70
10992;BME280;5549;47.028;15.514;2023-05-11T04:04:02;96298.47;;;12.46;69.25
10992;BME280;5549;47.028;15.514;2023-05-11T04:06:30;96298.47;;;12.46;68.74
10992;BME280;5549;47.028;15.514;2023-05-11T04:08:58;96297.44;;;12.57;68.90
10992;BME280;5549;47.028;15.514;2023-05-11T04:11:25;96301.69;;;12.40;69.15
10992;BME280;5549;47.028;15.514;2023-05-11T04:13:57;96299.72;;;12.42;69.18
10992;BME280;5549;47.028;15.514;2023-05-11T04:16:27;96292.50;;;12.44;69.45
10992;BME280;5549;47.028;15.514;2023-05-11T04:18:54;96302.13;;;12.36;69.69
10992;BME280;5549;47.028;15.514;2023-05-11T04:21:26;96289.38;;;12.31;70.16
10992;BME280;5549;47.028;15.514;2023-05-11T04:23:55;96293.47;;;12.43;69.51
10992;BME280;5549;47.028;15.514;2023-05-11T04:26:25;96301.09;;;12.19;70.28
10992;BME280;5549;47.028;15.514;2023-05-11T04:28:53;96298.16;;;12.49;68.98
10992;BME280;5549;47.028;15.514;2023-05-11T04:31:22;96305.63;;;12.54;68.87
10992;BME280;5549;47.028;15.514;2023-05-11T04:33:50;96305.53;;;12.46;69.09
10992;BME280;5549;47.028;15.514;2023-05-11T04:36:19;96307.22;;;12.65;68.51
10992;BME280;5549;47.028;15.514;2023-05-11T04:38:49;96307.47;;;12.44;69.04
10992;BME280;5549;47.028;15.514;2023-05-11T04:41:18;96312.94;;;12.33;69.59
10992;BME280;5549;47.028;15.514;2023-05-11T04:43:45;96311.22;;;12.41;68.88
10992;BME280;5549;47.028;15.514;2023-05-11T04:46:15;96312.47;;;12.47;68.21
10992;BME280;5549;47.028;15.514;2023-05-11T04:48:45;96318.34;;;12.59;68.23
10992;BME280;5549;47.028;15.514;2023-05-11T04:51:15;96320.69;;;12.62;67.81
10992;BME280;5549;47.028;15.514;2023-05-11T04:53:42;96314.34;;;12.55;68.54
10992;BME280;5549;47.028;15.514;2023-05-11T04:56:13;96313.03;;;12.68;67.93
10992;BME280;5549;47.028;15.514;2023-05-11T04:58:41;96312.94;;;12.33;68.62
10992;BME280;5549;47.028;15.514;2023-05-11T05:01:08;96322.25;;;12.55;67.63
10992;BME280;5549;47.028;15.514;2023-05-11T05:03:36;96311.56;;;12.56;67.45
10992;BME280;5549;47.028;15.514;2023-05-11T05:06:06;96315.63;;;12.50;68.59
10992;BME280;5549;47.028;15.514;2023-05-11T05:08:34;96313.91;;;12.59;67.60
10992;BME280;5549;47.028;15.514;2023-05-11T05:11:04;96312.50;;;12.65;67.27
10992;BME280;5549;47.028;15.514;2023-05-11T05:13:35;96314.56;;;12.43;68.17
10992;BME280;5549;47.028;15.514;2023-05-11T05:16:03;96315.63;;;12.50;67.97
10992;BME280;5549;47.028;15.514;2023-05-11T05:18:33;96320.69;;;12.34;68.98
10992;BME280;5549;47.028;15.514;2023-05-11T05:21:01;96317.13;;;12.26;69.25
10992;BME280;5549;47.028;15.514;2023-05-11T05:23:31;96319.72;;;12.35;68.93
10992;BME280;5549;47.028;15.514;2023-05-11T05:26:01;96328.34;;;12.28;69.06
10992;BME280;5549;47.028;15.514;2023-05-11T05:28:29;96324.13;;;12.44;68.45
10992;BME280;5549;47.028;15.514;2023-05-11T05:30:58;96317.78;;;12.37;68.49
10992;BME280;5549;47.028;15.514;2023-05-11T05:33:27;96317.88;;;12.45;67.14
10992;BME280;5549;47.028;15.514;2023-05-11T05:35:57;96319.53;;;12.46;67.65
10992;BME280;5549;47.028;15.514;2023-05-11T05:38:28;96316.50;;;12.41;66.99
10992;BME280;5549;47.028;15.514;2023-05-11T05:40:55;96320.13;;;12.40;67.59
10992;BME280;5549;47.028;15.514;2023-05-11T05:43:23;96322.59;;;12.42;66.51
10992;BME280;5549;47.028;15.514;2023-05-11T05:45:50;96321.88;;;12.49;67.87
10992;BME280;5549;47.028;15.514;2023-05-11T05:48:21;96319.91;;;12.24;67.14
10992;BME280;5549;47.028;15.514;2023-05-11T05:50:51;96322.94;;;12.29;66.91
10992;BME280;5549;47.028;15.514;2023-05-11T05:53:19;96318.88;;;12.35;67.04
10992;BME280;5549;47.028;15.514;2023-05-11T05:55:48;96317.09;;;12.35;66.39
10992;BME280;5549;47.028;15.514;2023-05-11T05:58:16;96321.28;;;12.28;66.66
10992;BME280;5549;47.028;15.514;2023-05-11T06:00:45;96321.84;;;12.22;67.02
10992;BME280;5549;47.028;15.514;2023-05-11T06:03:13;96320.44;;;12.28;67.01
10992;BME280;5549;47.028;15.514;2023-05-11T06:05:42;96318.94;;;12.25;66.49
10992;BME280;5549;47.028;15.514;2023-05-11T06:08:11;96317.09;;;12.35;66.05
10992;BME280;5549;47.028;15.514;2023-05-11T06:10:39;96318.16;;;12.42;65.16
10992;BME280;5549;47.028;15.514;2023-05-11T06:13:07;96322.56;;;12.51;65.71
10992;BME280;5549;47.028;15.514;2023-05-11T06:15:36;96319.22;;;12.49;65.96
10992;BME280;5549;47.028;15.514;2023-05-11T06:18:04;96322.06;;;12.38;65.65
10992;BME280;5549;47.028;15.514;2023-05-11T06:20:34;96324.53;;;12.40;65.77
10992;BME280;5549;47.028;15.514;2023-05-11T06:23:03;96332.16;;;12.43;66.01
10992;BME280;5549;47.028;15.514;2023-05-11T06:25:33;96322.94;;;12.29;65.81
10992;BME280;5549;47.028;15.514;2023-05-11T06:28:01;96319.47;;;12.29;65.75
10992;BME280;5549;47.028;15.514;2023-05-11T06:30:28;96320.88;;;12.50;64.96
10992;BME280;5549;47.028;15.514;2023-05-11T06:32:56;96326.88;;;12.43;64.32
10992;BME280;5549;47.028;15.514;2023-05-11T06:35:24;96322.84;;;12.48;65.05
10992;BME280;5549;47.028;15.514;2023-05-11T06:37:52;96333.19;;;12.32;66.71
10992;BME280;5549;47.028;15.514;2023-05-11T06:40:21;96318.34;;;12.31;65.02
10992;BME280;5549;47.028;15.514;2023-05-11T06:42:48;96318.22;;;12.33;65.52
10992;BME280;5549;47.028;15.514;2023-05-11T06:45:16;96318.31;;;12.41;65.75
10992;BME280;5549;47.028;15.514;2023-05-11T06:47:46;96319.31;;;12.30;65.82
10992;BME280;5549;47.028;15.514;2023-05-11T06:50:15;96327.97;;;12.13;65.88
10992;BME280;5549;47.028;15.514;2023-05-11T06:52:43;96326.53;;;12.28;65.60
10992;BME280;5549;47.028;15.514;2023-05-11T06:55:13;96318.59;;;12.38;65.28
10992;BME280;5549;47.028;15.514;2023-05-11T06:57:44;96313.09;;;12.59;65.89
10992;BME280;5549;47.028;15.514;2023-05-11T07:00:15;96318.34;;;12.59;64.83
10992;BME280;5549;47.028;15.514;2023-05-11T07:02:45;96321.44;;;12.54;66.39
10992;BME280;5549;47.028;15.514;2023-05-11T07:05:15;96319.72;;;12.35;65.87
10992;BME280;5549;47.028;15.514;2023-05-11T07:07:42;96313.22;;;12.30;65.66
10992;BME280;5549;47.028;15.514;2023-05-11T07:10:10;96310.75;;;12.28;67.28
10992;BME280;5549;47.028;15.514;2023-05-11T07:12:38;96320.63;;;12.16;67.81
10992;BME280;5549;47.028;15.514;2023-05-11T07:15:10;96319.03;;;12.33;66.10
10992;BME280;5549;47.028;15.514;2023-05-11T07:17:38;96320.78;;;12.42;66.58
10992;BME280;5549;47.028;15.514;2023-05-11T07:20:07;96311.47;;;12.48;65.69
10992;BME280;5549;47.028;15.514;2023-05-11T07:22:35;96317.13;;;12.26;66.84
10992;BME280;5549;47.028;15.514;2023-05-11T07:25:06;96320.41;;;12.37;67.43
10992;BME280;5549;47.028;15.514;2023-05-11T07:27:35;96325.88;;;12.53;66.09
10992;BME280;5549;47.028;15.514;2023-05-11T07:30:03;96325.22;;;12.42;67.37
10992;BME280;5549;47.028;15.514;2023-05-11T07:32:34;96331.72;;;12.47;67.01
10992;BME280;5549;47.028;15.514;2023-05-11T07:35:03;96330.75;;;12.48;66.26
10992;BME280;5549;47.028;15.514;2023-05-11T07:37:34;96323.81;;;12.75;65.73
10992;BME280;5549;47.028;15.514;2023-05-11T07:40:02;96325.75;;;12.73;65.93
10992;BME280;5549;47.028;15.514;2023-05-11T07:42:30;96330.88;;;12.74;65.58
10992;BME280;5549;47.028;15.514;2023-05-11T07:44:57;96337.41;;;12.70;65.76
10992;BME280;5549;47.028;15.514;2023-05-11T07:47:25;96333.91;;;12.79;66.33
10992;BME280;5549;47.028;15.514;2023-05-11T07:49:56;96333.00;;;12.89;66.14
10992;BME280;5549;47.028;15.514;2023-05-11T07:52:26;96335.13;;;12.85;66.16
10992;BME280;5549;47.028;15.514;2023-05-11T07:54:53;96329.31;;;12.81;67.13
10992;BME280;5549;47.028;15.514;2023-05-11T07:57:23;96333.66;;;12.73;67.04
10992;BME280;5549;47.028;15.514;2023-05-11T07:59:53;96337.28;;;12.44;66.34
10992;BME280;5549;47.028;15.514;2023-05-11T08:02:23;96330.78;;;12.66;66.12
10992;BME280;5549;47.028;15.514;2023-05-11T08:04:50;96342.44;;;12.36;69.20
10992;BME280;5549;47.028;15.514;2023-05-11T08:07:19;96333.75;;;12.26;68.18
10992;BME280;5549;47.028;15.514;2023-05-11T08:09:49;96330.75;;;12.48;67.23
10992;BME280;5549;47.028;15.514;2023-05-11T08:12:17;96337.03;;;12.38;68.77
10992;BME280;5549;47.028;15.514;2023-05-11T08:14:46;96333.09;;;12.14;68.90
10992;BME280;5549;47.028;15.514;2023-05-11T08:17:17;96330.66;;;12.40;68.71
10992;BME280;5549;47.028;15.514;2023-05-11T08:19:44;96331.94;;;12.27;69.00
10992;BME280;5549;47.028;15.514;2023-05-11T08:22:14;96327.56;;;12.08;70.46
10992;BME280;5549;47.028;15.514;2023-05-11T08:24:43;96330.47;;;12.05;71.09
10992;BME280;5549;47.028;15.514;2023-05-11T08:27:11;96329.81;;;11.93;70.55
10992;BME280;5549;47.028;15.514;2023-05-11T08:29:41;96328.56;;;11.97;71.03
10992;BME280;5549;47.028;15.514;2023-05-11T08:32:11;96320.56;;;11.89;71.74
10992;BME280;5549;47.028;15.514;2023-05-11T08:34:38;96332.41;;;12.03;72.17
10992;BME280;5549;47.028;15.514;2023-05-11T08:37:06;96328.13;;;12.02;71.64
10992;BME280;5549;47.028;15.514;2023-05-11T08:39:34;96329.69;;;11.95;73.03
10992;BME280;5549;47.028;15.514;2023-05-11T08:42:05;96331.22;;;11.87;73.52
10992;BME280;5549;47.028;15.514;2023-05-11T08:44:34;96324.25;;;12.15;71.79
10992;BME280;5549;47.028;15.514;2023-05-11T08:47:06;96324.66;;;12.01;73.42
10992;BME280;5549;47.028;15.514;2023-05-11T08:49:34;96323.41;;;12.15;73.12
10992;BME280;5549;47.028;15.514;2023-05-11T08:52:05;96330.16;;;12.27;74.10
10992;BME280;5549;47.028;15.514;2023-05-11T08:54:32;96327.13;;;12.12;73.47
10992;BME280;5549;47.028;15.514;2023-05-11T08:57:04;96329.38;;;12.07;73.99
10992;BME280;5549;47.028;15.514;2023-05-11T08:59:32;96321.59;;;12.15;73.66
10992;BME280;5549;47.028;15.514;2023-05-11T09:02:03;96322.44;;;12.06;74.18
10992;BME280;5549;47.028;15.514;2023-05-11T09:04:33;96317.97;;;12.26;74.00
10992;BME280;5549;47.028;15.514;2023-05-11T09:07:00;96314.84;;;12.40;73.83
10992;BME280;5549;47.028;15.514;2023-05-11T09:09:28;96324.59;;;12.30;77.28
10992;BME280;5549;47.028;15.514;2023-05-11T09:11:57;96332.53;;;12.11;77.05
10992;BME280;5549;47.028;15.514;2023-05-11T09:14:29;96329.03;;;12.30;75.53
10992;BME280;5549;47.028;15.514;2023-05-11T09:16:56;96328.19;;;12.29;77.57
10992;BME280;5549;47.028;15.514;2023-05-11T09:19:26;96326.53;;;12.28;77.07
10992;BME280;5549;47.028;15.514;2023-05-11T09:21:54;96322.44;;;12.16;79.29
10992;BME280;5549;47.028;15.514;2023-05-11T09:24:21;96328.16;;;12.39;77.80
10992;BME280;5549;47.028;15.514;2023-05-11T09:27:05;96329.06;;;12.20;79.10
10992;BME280;5549;47.028;15.514;2023-05-11T09:29:37;96327.13;;;12.12;79.88
10992;BME280;5549;47.028;15.514;2023-05-11T09:32:06;96326.88;;;12.06;79.57
10992;BME280;5549;47.028;15.514;2023-05-11T09:34:33;96318.03;;;11.97;80.75
10992;BME280;5549;47.028;15.514;2023-05-11T09:37:01;96319.75;;;12.26;80.26
10992;BME280;5549;47.028;15.514;2023-05-11T09:39:32;96312.44;;;12.19;81.77
10992;BME280;5549;47.028;15.514;2023-05-11T09:42:13;96307.13;;;12.29;82.71
10992;BME280;5549;47.028;15.514;2023-05-11T09:44:43;96316.94;;;12.37;81.87
10992;BME280;5549;47.028;15.514;2023-05-11T09:47:14;96303.91;;;12.35;80.82
10992;BME280;5549;47.028;15.514;2023-05-11T09:49:43;96301.28;;;12.35;80.23
10992;BME280;5549;47.028;15.514;2023-05-11T09:52:16;96299.44;;;12.18;81.17
10992;BME280;5549;47.028;15.514;2023-05-11T09:54:50;96303.81;;;12.27;80.70
10992;BME280;5549;47.028;15.514;2023-05-11T09:57:26;96309.66;;;12.21;81.71
10992;BME280;5549;47.028;15.514;2023-05-11T09:59:59;96303.38;;;12.32;80.92
10992;BME280;5549;47.028;15.514;2023-05-11T10:02:28;96296.97;;;12.62;79.83
10992;BME280;5549;47.028;15.514;2023-05-11T10:04:56;96304.56;;;12.47;80.71
10992;BME280;5549;47.028;15.514;2023-05-11T10:07:28;96299.78;;;12.33;82.12
10992;BME280;5549;47.028;15.514;2023-05-11T10:09:58;96307.63;;;12.42;82.01
10992;BME280;5549;47.028;15.514;2023-05-11T10:12:27;96302.13;;;12.36;82.96
10992;BME280;5549;47.028;15.514;2023-05-11T10:15:00;96307.78;;;12.41;83.01
10992;BME280;5549;47.028;15.514;2023-05-11T10:17:28;96308.19;;;12.64;81.28
10992;BME280;5549;47.028;15.514;2023-05-11T10:19:58;96310.72;;;12.83;80.93
10992;BME280;5549;47.028;15.514;2023-05-11T10:22:29;96308.25;;;12.99;80.57
10992;BME280;5549;47.028;15.514;2023-05-11T10:24:58;96312.25;;;13.03;81.84
10992;BME280;5549;47.028;15.514;2023-05-11T10:27:26;96307.19;;;13.10;81.70
10992;BME280;5549;47.028;15.514;2023-05-11T10:29:59;96313.00;;;13.13;80.88
10992;BME280;5549;47.028;15.514;2023-05-11T10:32:27;96314.50;;;13.16;80.97
10992;BME280;5549;47.028;15.514;2023-05-11T10:34:55;96314.44;;;13.08;81.76
10992;BME280;5549;47.028;15.514;2023-05-11T10:37:23;96309.09;;;13.18;81.21
10992;BME280;5549;47.028;15.514;2023-05-11T10:39:54;96311.03;;;13.15;81.75
10992;BME280;5549;47.028;15.514;2023-05-11T10:42:43;96314.38;;;13.18;82.00
10992;BME280;5549;47.028;15.514;2023-05-11T10:45:20;96312.72;;;13.16;82.24
10992;BME280;5549;47.028;15.514;2023-05-11T10:48:47;96299.53;;;13.16;82.32
10992;BME280;5549;47.028;15.514;2023-05-11T10:52:01;96315.63;;;12.96;83.09
10992;BME280;5549;47.028;15.514;2023-05-11T10:54:43;96315.56;;;13.05;83.23
10992;BME280;5549;47.028;15.514;2023-05-11T10:57:35;96306.66;;;13.06;82.79
10992;BME280;5549;47.028;15.514;2023-05-11T11:00:53;96313.59;;;13.07;82.41
10992;BME280;5549;47.028;15.514;2023-05-11T11:03:29;96311.63;;;13.09;82.86
10992;BME280;5549;47.028;15.514;2023-05-11T11:05:57;96309.22;;;13.16;82.42
10992;BME280;5549;47.028;15.514;2023-05-11T11:08:25;96311.34;;;13.12;83.08
10992;BME280;5549;47.028;15.514;2023-05-11T11:10:53;96305.09;;;13.13;82.63
10992;BME280;5549;47.028;15.514;2023-05-11T11:13:23;96306.50;;;13.08;82.94
10992;BME280;5549;47.028;15.514;2023-05-11T11:16:12;96304.06;;;13.24;82.04
10992;BME280;5549;47.028;15.514;2023-05-11T11:18:39;96311.34;;;13.12;82.96
10992;BME280;5549;47.028;15.514;2023-05-11T11:21:07;96303.75;;;13.27;82.21
10992;BME280;5549;47.028;15.514;2023-05-11T11:23:45;96307.91;;;13.30;82.48
10992;BME280;5549;47.028;15.514;2023-05-11T11:26:17;96304.13;;;13.32;82.74
10992;BME280;5549;47.028;15.514;2023-05-11T11:29:10;96298.63;;;13.26;83.10
10992;BME280;5549;47.028;15.514;2023-05-11T11:31:42;96298.84;;;13.32;83.26
10992;BME280;5549;47.028;15.514;2023-05-11T11:34:33;96299.16;;;13.29;83.75
10992;BME280;5549;47.028;15.514;2023-05-11T11:37:06;96302.16;;;13.34;83.47
10992;BME280;5549;47.028;15.514;2023-05-11T11:39:52;96302.22;;;13.07;86.11
10992;BME280;5549;47.028;15.514;2023-05-11T11:42:35;96296.13;;;13.06;85.22
10992;BME280;5549;47.028;15.514;2023-05-11T11:45:28;96294.09;;;13.36;84.43
10992;BME280;5549;47.028;15.514;2023-05-11T11:48:11;96293.16;;;12.74;86.76
10992;BME280;5549;47.028;15.514;2023-05-11T11:50:45;96289.34;;;12.86;86.58
10992;BME280;5549;47.028;15.514;2023-05-11T11:54:04;96292.06;;;12.94;86.15
10992;BME280;5549;47.028;15.514;2023-05-11T11:56:43;96297.47;;;12.75;87.17
10992;BME280;5549;47.028;15.514;2023-05-11T11:59:12;96299.97;;;12.94;86.83
10992;BME280;5549;47.028;15.514;2023-05-11T12:01:44;96296.13;;;12.89;86.84
10992;BME280;5549;47.028;15.514;2023-05-11T12:04:54;96293.72;;;12.95;87.33
10992;BME280;5549;47.028;15.514;2023-05-11T12:07:25;96290.00;;;12.88;87.93
10992;BME280;5549;47.028;15.514;2023-05-11T12:09:53;96279.19;;;13.09;86.82
10992;BME280;5549;47.028;15.514;2023-05-11T12:12:24;96285.66;;;12.97;88.63
10992;BME280;5549;47.028;15.514;2023-05-11T12:14:53;96288.56;;;12.76;88.53
10992;BME280;5549;47.028;15.514;2023-05-11T12:17:25;96288.44;;;12.95;87.31
10992;BME280;5549;47.028;15.514;2023-05-11T12:20:12;96276.38;;;13.10;86.28
10992;BME280;5549;47.028;15.514;2023-05-11T12:22:40;96279.53;;;13.14;86.31
10992;BME280;5549;47.028;15.514;2023-05-11T12:25:12;96278.53;;;13.25;85.63
10992;BME280;5549;47.028;15.514;2023-05-11T12:27:47;96283.38;;;12.84;88.91
10992;BME280;5549;47.028;15.514;2023-05-11T12:30:19;96270.28;;;12.74;88.41
10992;BME280;5549;47.028;15.514;2023-05-11T12:32:50;96276.13;;;12.50;89.55
10992;BME280;5549;47.028;15.514;2023-05-11T12:35:23;96282.84;;;12.35;92.69
10992;BME280;5549;47.028;15.514;2023-05-11T12:37:53;96268.47;;;12.30;91.75
10992;BME280;5549;47.028;15.514;2023-05-11T12:40:20;96267.88;;;12.36;91.62
10992;BME280;5549;47.028;15.514;2023-05-11T12:42:51;96262.94;;;12.50;90.61
10992;BME280;5549;47.028;15.514;2023-05-11T12:45:19;96264.44;;;12.35;91.08
10992;BME280;5549;47.028;15.514;2023-05-11T12:47:52;96260.38;;;12.41;90.98
10992;BME280;5549;47.028;15.514;2023-05-11T12:50:22;96264.97;;;12.02;93.70
10992;BME280;5549;47.028;15.514;2023-05-11T12:52:51;96258.63;;;12.32;90.62
10992;BME280;5549;47.028;15.514;2023-05-11T12:55:28;96258.00;;;12.20;92.49
10992;BME280;5549;47.028;15.514;2023-05-11T12:58:06;96251.84;;;12.29;91.36
10992;BME280;5549;47.028;15.514;2023-05-11T13:00:48;96253.19;;;12.06;93.89
10992;BME280;5549;47.028;15.514;2023-05-11T13:03:20;96250.25;;;12.09;92.85
10992;BME280;5549;47.028;15.514;2023-05-11T13:05:50;96249.69;;;12.15;93.03
10992;BME280;5549;47.028;15.514;2023-05-11T13:08:21;96245.41;;;12.14;91.40
10992;BME280;5549;47.028;15.514;2023-05-11T13:10:51;96247.91;;;12.06;93.07
10992;BME280;5549;47.028;15.514;2023-05-11T13:13:28;96250.16;;;12.01;94.06
10992;BME280;5549;47.028;15.514;2023-05-11T13:15:58;96252.72;;;11.83;95.83
10992;BME280;5549;47.028;15.514;2023-05-11T13:18:25;96254.16;;;11.58;97.89
10992;BME280;5549;47.028;15.514;2023-05-11T13:21:06;96249.94;;;11.84;96.32
10992;BME280;5549;47.028;15.514;2023-05-11T13:23:34;96245.31;;;11.96;95.08
10992;BME280;5549;47.028;15.514;2023-05-11T13:26:05;96247.72;;;11.89;96.04